Time;durP1;ratioP1;P1;durP2;ratioP2;P2;SDS_P1;SDS_P2;PMS_P1;PMS_P2;Temp;Humidity;BMP_temperature;BMP_pressure;BME280_temperature;BME280_humidity;BME280_pressure;Samples;Min_cycle;Max_cycle;Signal;HPM_P1;HPM_P2
2023/02/16 00:00:22;;;;;;;63.38;34.38;;;5.40;99.90;;;;;;5089073;28;20062;-75
2023/02/16 00:02:48;;;;;;;58.78;32.58;;;5.30;99.90;;;;;;5075129;28;20437;-75
2023/02/16 00:05:26;;;;;;;61.30;32.78;;;5.30;99.90;;;;;;5073769;28;20044;-75
2023/02/16 00:07:53;;;;;;;63.83;33.50;;;5.30;99.90;;;;;;5071392;28;20511;-75
2023/02/16 00:10:23;;;;;;;61.05;32.50;;;5.30;99.90;;;;;;5075011;28;20043;-76
2023/02/16 00:15:39;;;;;;;63.10;32.42;;;5.40;99.90;;;;;;5069151;28;20067;-76
2023/02/16 00:18:16;;;;;;;64.35;32.22;;;5.40;99.90;;;;;;5063682;28;20557;-76
2023/02/16 00:20:42;;;;;;;64.97;33.13;;;5.30;99.90;;;;;;5073143;28;20040;-75
2023/02/16 00:23:08;;;;;;;63.20;33.55;;;5.30;99.90;;;;;;5073208;28;20044;-75
2023/02/16 00:25:36;;;;;;;63.05;33.38;;;5.40;99.90;;;;;;5072495;28;20047;-75
2023/02/16 00:28:06;;;;;;;61.72;32.90;;;5.40;99.90;;;;;;5074662;28;20043;-75
2023/02/16 00:30:32;;;;;;;61.83;32.38;;;5.30;99.90;;;;;;5067233;28;20046;-75
2023/02/16 00:32:58;;;;;;;63.97;31.67;;;5.30;99.90;;;;;;5065717;28;20424;-75
2023/02/16 00:35:23;;;;;;;64.10;32.97;;;5.30;99.90;;;;;;5073222;28;20055;-75
2023/02/16 00:37:49;;;;;;;62.00;32.05;;;5.30;99.90;;;;;;5073075;28;20052;-75
2023/02/16 00:40:16;;;;;;;61.17;32.33;;;5.30;99.90;;;;;;5070983;28;20047;-75
2023/02/16 00:42:46;;;;;;;64.07;34.08;;;5.30;99.90;;;;;;5052965;28;20032;-75
2023/02/16 00:45:18;;;;;;;65.15;34.15;;;5.30;99.90;;;;;;5072744;28;20043;-75
2023/02/16 00:47:46;;;;;;;61.20;33.28;;;5.40;99.90;;;;;;5052331;28;20484;-75
2023/02/16 00:50:21;;;;;;;65.05;34.55;;;5.30;99.90;;;;;;5067088;28;20039;-75
2023/02/16 00:52:47;;;;;;;63.80;34.55;;;5.30;99.90;;;;;;5069951;28;20040;-75
2023/02/16 00:55:21;;;;;;;63.35;33.67;;;5.30;99.90;;;;;;5071704;28;20087;-75
2023/02/16 00:57:54;;;;;;;64.75;33.95;;;5.30;99.90;;;;;;5051615;28;20040;-75
2023/02/16 01:00:30;;;;;;;65.43;34.15;;;5.30;99.90;;;;;;5068204;28;20071;-75
2023/02/16 01:02:59;;;;;;;59.55;31.98;;;5.30;99.90;;;;;;5069984;28;20031;-75
2023/02/16 01:05:25;;;;;;;61.70;32.90;;;5.30;99.90;;;;;;5063820;28;20100;-75
2023/02/16 01:13:22;;;;;;;59.38;33.28;;;5.30;99.90;;;;;;5071208;28;20162;-75
2023/02/16 01:15:50;;;;;;;61.22;32.85;;;5.30;99.90;;;;;;5088457;28;20077;-75
2023/02/16 01:18:18;;;;;;;60.40;32.95;;;5.30;99.90;;;;;;5070116;28;20120;-75
2023/02/16 01:20:44;;;;;;;64.93;33.22;;;5.20;99.90;;;;;;5067423;28;20041;-75
2023/02/16 01:23:10;;;;;;;62.35;33.47;;;5.20;99.90;;;;;;5072120;28;20052;-75
2023/02/16 01:25:36;;;;;;;60.33;31.88;;;5.20;99.90;;;;;;5073187;28;20492;-75
2023/02/16 01:28:12;;;;;;;61.45;32.25;;;5.20;99.90;;;;;;5070815;28;20048;-76
2023/02/16 01:30:38;;;;;;;64.43;33.42;;;5.20;99.90;;;;;;5074820;28;20456;-75
2023/02/16 01:33:04;;;;;;;70.15;34.97;;;5.20;99.90;;;;;;5068426;28;20055;-75
2023/02/16 01:35:33;;;;;;;64.10;33.67;;;5.20;99.90;;;;;;5065860;28;20113;-75
2023/02/16 01:37:58;;;;;;;62.92;34.17;;;5.20;99.90;;;;;;5071010;28;20036;-75
2023/02/16 01:40:33;;;;;;;63.28;33.88;;;5.20;99.90;;;;;;5060786;28;20044;-75
2023/02/16 01:43:19;;;;;;;61.92;33.58;;;5.20;99.90;;;;;;5065164;28;20074;-75
2023/02/16 01:45:50;;;;;;;64.82;33.88;;;5.10;99.90;;;;;;5083293;28;20043;-75
2023/02/16 01:48:24;;;;;;;64.10;34.45;;;5.30;99.90;;;;;;5080583;28;20048;-75
2023/02/16 01:51:22;;;;;;;62.70;33.75;;;5.10;99.90;;;;;;5060620;28;20033;-75
2023/02/16 01:53:57;;;;;;;64.43;34.58;;;5.10;99.90;;;;;;5068864;28;20098;-75
2023/02/16 01:56:42;;;;;;;64.32;35.50;;;5.10;99.90;;;;;;5055359;28;20055;-75
2023/02/16 01:59:46;;;;;;;65.35;34.97;;;5.10;99.90;;;;;;5086901;28;20032;-75
2023/02/16 02:02:24;;;;;;;64.20;34.90;;;5.10;99.90;;;;;;5031803;28;20135;-75
2023/02/16 02:08:02;;;;;;;66.20;32.80;;;5.10;99.90;;;;;;5070336;28;20466;-75
2023/02/16 02:10:39;;;;;;;66.18;34.80;;;5.10;99.90;;;;;;5069414;28;20500;-75
2023/02/16 02:13:38;;;;;;;67.97;33.85;;;5.10;99.90;;;;;;5069196;28;20040;-75
2023/02/16 02:16:04;;;;;;;71.20;35.45;;;5.10;99.90;;;;;;5069742;28;20040;-75
2023/02/16 02:18:30;;;;;;;64.07;34.22;;;5.00;99.90;;;;;;5080376;28;20043;-75
2023/02/16 02:23:52;;;;;;;61.33;34.42;;;5.00;99.90;;;;;;5062390;28;20117;-75
2023/02/16 02:26:36;;;;;;;64.72;34.20;;;5.00;99.90;;;;;;5071897;28;20523;-75
2023/02/16 02:29:33;;;;;;;59.78;32.83;;;5.00;99.90;;;;;;5069957;28;20396;-75
2023/02/16 02:32:14;;;;;;;67.80;35.08;;;4.90;99.90;;;;;;5068445;28;20047;-75
2023/02/16 02:35:01;;;;;;;67.80;35.58;;;4.90;99.90;;;;;;5054407;28;20127;-75
2023/02/16 02:38:04;;;;;;;63.17;34.25;;;4.90;99.90;;;;;;5074268;28;20044;-75
2023/02/16 02:40:46;;;;;;;67.20;35.88;;;4.90;99.90;;;;;;5072628;28;20568;-75
2023/02/16 02:43:18;;;;;;;64.53;34.67;;;4.80;99.90;;;;;;5068868;28;20102;-75
2023/02/16 02:45:52;;;;;;;58.83;33.90;;;4.80;99.90;;;;;;5075227;28;20484;-75
2023/02/16 02:48:18;;;;;;;69.03;34.63;;;4.80;99.90;;;;;;5075662;28;20047;-75
2023/02/16 02:53:43;;;;;;;70.32;36.72;;;4.80;99.90;;;;;;5070591;28;20052;-75
2023/02/16 03:01:56;;;;;;;73.53;35.42;;;5.00;99.90;;;;;;5072142;28;20070;-75
2023/02/16 03:04:27;;;;;;;;;;;4.80;99.90;;;;;;5094479;28;20044;-75
2023/02/16 03:06:56;;;;;;;73.05;36.20;;;4.80;99.90;;;;;;5058062;28;19923;-75
2023/02/16 03:09:22;;;;;;;76.00;37.08;;;4.70;99.90;;;;;;5058418;28;20044;-75
2023/02/16 03:14:38;;;;;;;74.75;37.13;;;4.90;99.90;;;;;;5068536;28;20051;-75
2023/02/16 03:31:04;;;;;;;76.05;37.75;;;4.80;99.90;;;;;;5075120;28;20177;-75
2023/02/16 03:33:30;;;;;;;75.43;38.38;;;4.90;99.90;;;;;;5070912;28;20055;-75
2023/02/16 03:35:58;;;;;;;71.25;38.22;;;4.90;99.90;;;;;;5073200;28;20036;-76
2023/02/16 03:38:24;;;;;;;71.85;38.22;;;5.80;99.90;;;;;;5069097;28;20055;-75
2023/02/16 03:40:50;;;;;;;71.20;38.30;;;4.90;99.90;;;;;;5070221;28;20051;-75
2023/02/16 03:43:16;;;;;;;74.38;38.35;;;4.90;99.90;;;;;;5078012;28;20043;-75
2023/02/16 03:45:43;;;;;;;73.85;38.03;;;4.90;99.90;;;;;;5073386;28;20051;-75
2023/02/16 03:48:09;;;;;;;73.15;38.05;;;4.90;99.90;;;;;;5105271;28;20048;-75
2023/02/16 03:50:35;;;;;;;71.93;38.45;;;4.90;99.90;;;;;;5070184;28;20047;-75
2023/02/16 03:53:07;;;;;;;75.63;38.88;;;4.90;99.90;;;;;;5078094;28;20396;-75
2023/02/16 03:55:37;;;;;;;75.97;39.40;;;4.90;99.90;;;;;;5066629;28;20032;-75
2023/02/16 03:58:04;;;;;;;73.30;39.30;;;4.90;99.90;;;;;;5066183;28;20500;-74
2023/02/16 04:00:31;;;;;;;74.47;38.58;;;4.90;99.90;;;;;;5061138;28;20040;-75
2023/02/16 04:02:56;;;;;;;73.68;38.40;;;4.90;99.90;;;;;;5074006;28;20032;-75
2023/02/16 04:05:22;;;;;;;71.82;39.53;;;4.90;99.90;;;;;;5074160;28;20036;-75
2023/02/16 04:07:48;;;;;;;73.25;39.80;;;5.00;99.90;;;;;;5072395;28;20040;-75
2023/02/16 04:10:13;;;;;;;75.60;39.83;;;5.00;99.90;;;;;;5100547;28;20035;-75
2023/02/16 04:12:39;;;;;;;79.18;40.88;;;5.00;99.90;;;;;;5080215;28;20066;-75
2023/02/16 04:15:13;;;;;;;79.78;41.75;;;5.00;99.90;;;;;;5067157;28;20393;-75
2023/02/16 04:17:40;;;;;;;78.22;39.42;;;5.30;99.90;;;;;;5074618;28;20420;-75
2023/02/16 04:20:09;;;;;;;78.40;40.17;;;5.10;99.90;;;;;;5082596;28;20058;-75
2023/02/16 04:22:35;;;;;;;75.00;40.92;;;5.10;99.90;;;;;;5085327;28;20048;-75
2023/02/16 04:25:00;;;;;;;76.80;40.95;;;5.10;99.90;;;;;;5071676;28;20052;-75
2023/02/16 04:27:26;;;;;;;74.22;39.50;;;5.10;99.90;;;;;;5057691;28;20480;-74
2023/02/16 04:29:52;;;;;;;74.05;40.53;;;5.10;99.90;;;;;;5074153;28;20048;-75
2023/02/16 04:32:17;;;;;;;71.75;39.25;;;5.10;99.90;;;;;;5061905;28;20043;-75
2023/02/16 04:34:43;;;;;;;78.25;41.38;;;5.10;99.90;;;;;;5073866;28;20047;-75
2023/02/16 04:37:08;;;;;;;79.43;41.22;;;5.20;99.90;;;;;;5071441;28;20104;-75
2023/02/16 04:39:34;;;;;;;74.30;39.70;;;5.20;99.90;;;;;;5091891;28;20202;-75
2023/02/16 04:42:00;;;;;;;76.03;40.40;;;5.20;99.90;;;;;;5077579;28;20039;-75
2023/02/16 04:44:26;;;;;;;80.82;41.67;;;5.20;99.90;;;;;;5071388;28;20044;-75
2023/02/16 04:46:51;;;;;;;77.35;41.70;;;5.20;99.90;;;;;;5077222;28;20123;-75
2023/02/16 04:49:17;;;;;;;76.18;40.95;;;5.20;99.90;;;;;;5095940;28;20446;-75
2023/02/16 04:51:42;;;;;;;81.20;42.05;;;5.20;99.90;;;;;;5065895;28;20044;-74
2023/02/16 04:54:08;;;;;;;80.75;41.40;;;5.20;99.90;;;;;;5070735;28;20045;-75
2023/02/16 04:56:34;;;;;;;81.18;42.63;;;5.20;99.90;;;;;;5076031;28;20036;-75
2023/02/16 04:58:59;;;;;;;83.90;41.83;;;5.20;99.90;;;;;;5073494;28;20036;-75
2023/02/16 05:01:27;;;;;;;84.25;43.47;;;5.30;99.90;;;;;;5071939;28;20043;-75
2023/02/16 05:03:52;;;;;;;79.25;41.80;;;5.30;99.90;;;;;;5054109;28;20044;-75
2023/02/16 05:06:18;;;;;;;74.35;41.45;;;5.30;99.90;;;;;;5074919;28;20046;-75
2023/02/16 05:08:45;;;;;;;78.30;42.60;;;5.30;99.90;;;;;;5074164;28;20083;-76
2023/02/16 05:16:44;;;;;;;85.50;43.13;;;5.30;99.90;;;;;;5070862;28;20443;-75
2023/02/16 05:19:09;;;;;;;79.18;42.75;;;5.30;99.90;;;;;;5073276;28;20036;-78
2023/02/16 05:21:35;;;;;;;78.03;41.90;;;5.30;99.90;;;;;;5069919;28;20062;-76
2023/02/16 05:24:07;;;;;;;82.32;42.58;;;5.30;99.90;;;;;;5068864;28;20071;-76
2023/02/16 05:26:33;;;;;;;80.47;42.50;;;5.30;99.90;;;;;;5072942;28;20086;-75
2023/02/16 05:29:00;;;;;;;78.35;43.05;;;5.30;99.90;;;;;;5071086;28;20047;-76
2023/02/16 05:31:26;;;;;;;82.43;43.40;;;5.30;99.90;;;;;;5081073;28;20032;-76
2023/02/16 05:33:52;;;;;;;79.53;42.42;;;5.30;99.90;;;;;;5071638;28;20044;-77
2023/02/16 05:36:18;;;;;;;77.63;42.30;;;5.30;99.90;;;;;;5051484;28;20032;-76
2023/02/16 05:38:44;;;;;;;84.70;42.70;;;5.40;99.90;;;;;;5071775;28;20088;-76
2023/02/16 05:41:11;;;;;;;74.75;42.20;;;5.40;99.90;;;;;;5072827;28;20511;-75
2023/02/16 05:43:37;;;;;;;81.50;43.47;;;5.40;99.90;;;;;;5069421;28;20416;-79
2023/02/16 05:46:07;;;;;;;80.45;43.47;;;5.80;99.90;;;;;;5069282;28;20035;-78
2023/02/16 05:48:33;;;;;;;75.28;41.97;;;5.40;99.90;;;;;;5070023;28;20480;-77
2023/02/16 05:50:58;;;;;;;79.75;43.10;;;5.40;99.90;;;;;;5072095;28;20089;-78
2023/02/16 05:53:24;;;;;;;80.80;44.22;;;5.40;99.90;;;;;;5087671;28;20036;-78
2023/02/16 05:55:49;;;;;;;85.45;43.20;;;5.40;99.90;;;;;;5060078;28;20039;-77
2023/02/16 05:58:15;;;;;;;78.38;42.78;;;5.40;99.90;;;;;;5060275;28;20086;-78
2023/02/16 06:00:40;;;;;;;74.40;41.95;;;5.50;99.90;;;;;;5059540;28;20105;-78
2023/02/16 06:03:06;;;;;;;79.90;43.25;;;5.50;99.90;;;;;;5062232;28;20125;-78
2023/02/16 06:05:32;;;;;;;77.70;41.55;;;5.50;99.90;;;;;;5042233;28;20064;-77
2023/02/16 06:07:57;;;;;;;77.95;42.53;;;5.50;99.90;;;;;;5061060;28;20048;-76
2023/02/16 06:10:23;;;;;;;82.63;44.00;;;5.50;99.90;;;;;;5063206;28;20119;-75
2023/02/16 06:12:48;;;;;;;73.72;41.45;;;5.50;99.90;;;;;;5070252;28;20040;-75
2023/02/16 06:15:14;;;;;;;76.15;42.53;;;5.50;99.90;;;;;;5091708;28;20028;-76
2023/02/16 06:17:40;;;;;;;82.95;41.72;;;5.50;99.90;;;;;;5078806;28;20066;-76
2023/02/16 06:20:06;;;;;;;79.18;42.15;;;5.50;99.90;;;;;;5096241;28;20089;-76
2023/02/16 06:22:31;;;;;;;72.43;41.10;;;5.50;99.90;;;;;;5072589;28;20047;-76
2023/02/16 06:24:57;;;;;;;80.47;42.13;;;5.50;99.90;;;;;;5071862;28;20032;-76
2023/02/16 06:27:23;;;;;;;79.20;41.50;;;5.50;99.90;;;;;;5076285;28;20609;-76
2023/02/16 06:29:48;;;;;;;80.32;42.85;;;5.50;99.90;;;;;;5072192;28;20044;-75
2023/02/16 06:32:14;;;;;;;77.18;41.13;;;5.80;99.90;;;;;;5056903;28;20043;-75
2023/02/16 06:34:39;;;;;;;80.75;43.25;;;5.60;99.90;;;;;;5073325;28;20051;-76
2023/02/16 06:37:05;;;;;;;78.70;42.55;;;5.60;99.90;;;;;;5068831;28;20076;-75
2023/02/16 06:39:30;;;;;;;73.88;42.15;;;5.60;99.90;;;;;;5075877;28;20036;-76
2023/02/16 06:41:56;;;;;;;71.43;41.45;;;5.60;99.90;;;;;;5076030;28;20036;-76
2023/02/16 06:44:22;;;;;;;75.85;42.50;;;5.60;99.90;;;;;;5083998;28;20092;-76
2023/02/16 06:46:47;;;;;;;78.88;44.15;;;5.60;99.90;;;;;;5070765;28;20056;-75
2023/02/16 06:49:19;;;;;;;80.00;42.40;;;5.60;99.90;;;;;;5051177;28;20130;-76
2023/02/16 06:51:45;;;;;;;77.70;42.28;;;5.60;99.90;;;;;;5066681;28;20032;-75
2023/02/16 06:54:11;;;;;;;77.25;43.05;;;5.60;99.90;;;;;;5076134;28;20036;-75
2023/02/16 06:56:37;;;;;;;78.50;42.80;;;5.70;99.90;;;;;;5071246;28;20036;-74
2023/02/16 06:59:03;;;;;;;77.20;41.47;;;5.70;99.90;;;;;;5069746;28;20485;-75
2023/02/16 07:01:30;;;;;;;81.45;43.20;;;6.80;99.90;;;;;;5075360;28;20044;-74
2023/02/16 07:03:56;;;;;;;80.68;43.00;;;5.70;99.90;;;;;;5066666;28;20056;-75
2023/02/16 07:06:24;;;;;;;73.72;42.50;;;6.00;99.90;;;;;;5086064;28;20047;-74
2023/02/16 07:08:51;;;;;;;79.38;43.55;;;5.90;99.90;;;;;;5094394;28;20089;-74
2023/02/16 07:11:18;;;;;;;84.60;41.63;;;5.70;99.90;;;;;;5075842;28;20457;-73
2023/02/16 07:13:43;;;;;;;76.45;42.13;;;5.70;99.90;;;;;;5072225;28;20132;-73
2023/02/16 07:16:10;;;;;;;77.80;42.78;;;5.80;99.90;;;;;;5064502;28;20135;-74
2023/02/16 07:18:35;;;;;;;71.65;41.45;;;5.80;99.90;;;;;;5066500;28;20043;-74
2023/02/16 07:21:01;;;;;;;78.97;41.70;;;5.80;99.90;;;;;;5064970;28;20040;-74
2023/02/16 07:23:27;;;;;;;76.47;43.28;;;5.80;99.90;;;;;;5058222;28;20075;-74
2023/02/16 07:25:52;;;;;;;73.72;41.78;;;5.80;99.90;;;;;;5069208;28;20040;-74
2023/02/16 07:28:18;;;;;;;79.85;41.97;;;5.90;99.90;;;;;;5070272;28;20101;-74
2023/02/16 07:30:44;;;;;;;74.28;41.13;;;6.00;99.90;;;;;;5067632;28;20468;-74
2023/02/16 07:33:10;;;;;;;79.22;42.60;;;5.90;99.90;;;;;;5082166;28;20039;-74
2023/02/16 07:35:36;;;;;;;79.30;42.70;;;5.90;99.90;;;;;;5070641;28;20123;-73
2023/02/16 07:38:03;;;;;;;76.75;42.38;;;5.90;99.90;;;;;;5088987;28;20040;-74
2023/02/16 07:40:29;;;;;;;80.43;44.17;;;6.00;99.90;;;;;;5068817;28;20044;-74
2023/02/16 07:42:59;;;;;;;76.47;41.30;;;5.90;99.90;;;;;;5064875;28;20481;-75
2023/02/16 07:45:25;;;;;;;75.60;42.97;;;6.00;99.90;;;;;;5087281;28;20122;-74
2023/02/16 07:47:51;;;;;;;71.55;40.58;;;6.00;99.90;;;;;;5080361;28;20082;-74
2023/02/16 07:50:17;;;;;;;77.07;41.75;;;6.00;99.90;;;;;;5060460;28;20036;-74
2023/02/16 07:52:42;;;;;;;74.50;42.05;;;6.00;99.90;;;;;;5096869;28;20035;-74
2023/02/16 07:55:10;;;;;;;81.53;42.42;;;6.00;99.90;;;;;;5075890;28;20051;-74
2023/02/16 07:57:37;;;;;;;71.60;42.40;;;6.00;99.90;;;;;;5054519;28;20031;-74
2023/02/16 08:00:06;;;;;;;77.78;40.90;;;6.10;99.90;;;;;;5080000;28;20043;-74
2023/02/16 08:02:32;;;;;;;77.18;43.25;;;6.10;99.90;;;;;;5058151;28;20565;-74
2023/02/16 08:04:58;;;;;;;77.40;43.15;;;6.10;99.90;;;;;;5061897;28;20151;-74
2023/02/16 08:07:24;;;;;;;77.50;41.58;;;6.10;99.90;;;;;;5066898;28;20040;-75
2023/02/16 08:09:50;;;;;;;78.85;43.95;;;6.10;99.90;;;;;;5046765;28;20028;-75
2023/02/16 08:12:16;;;;;;;77.47;43.28;;;6.10;99.90;;;;;;5058285;28;20492;-75
2023/02/16 08:14:42;;;;;;;80.05;43.50;;;6.20;99.90;;;;;;5057298;28;20032;-75
2023/02/16 08:17:08;;;;;;;78.43;44.45;;;6.10;99.90;;;;;;5044799;28;20078;-74
2023/02/16 08:19:34;;;;;;;71.75;40.83;;;6.20;99.90;;;;;;5058226;28;20044;-74
2023/02/16 08:22:01;;;;;;;73.93;40.95;;;6.20;99.90;;;;;;5062786;28;20056;-74
2023/02/16 08:24:27;;;;;;;82.45;44.33;;;6.10;99.90;;;;;;5067057;28;20044;-74
2023/02/16 08:26:54;;;;;;;75.22;43.10;;;6.10;99.90;;;;;;5062013;28;20040;-74
2023/02/16 08:29:21;;;;;;;82.63;45.67;;;6.10;99.90;;;;;;5074928;28;20043;-75
2023/02/16 08:31:47;;;;;;;80.20;44.30;;;6.10;99.90;;;;;;5067085;28;20047;-73
2023/02/16 08:34:15;;;;;;;74.28;42.42;;;6.10;99.90;;;;;;5070898;28;20446;-74
2023/02/16 08:36:43;;;;;;;80.07;45.38;;;6.10;99.90;;;;;;5054286;28;20507;-74
2023/02/16 08:39:17;;;;;;;80.00;42.90;;;6.10;99.90;;;;;;5071938;28;20051;-74
2023/02/16 08:41:45;;;;;;;84.20;44.17;;;6.10;99.90;;;;;;5086178;28;20043;-74
2023/02/16 08:44:11;;;;;;;83.20;44.17;;;6.10;99.90;;;;;;5071521;28;20049;-74
2023/02/16 08:46:39;;;;;;;76.85;43.08;;;6.10;99.90;;;;;;5088115;28;20044;-74
2023/02/16 08:49:06;;;;;;;76.88;44.33;;;6.10;99.90;;;;;;5069079;28;20048;-74
2023/02/16 08:51:34;;;;;;;76.93;43.88;;;6.10;99.90;;;;;;5086072;28;20036;-74
2023/02/16 08:54:00;;;;;;;81.65;44.42;;;6.20;99.90;;;;;;5071062;28;20047;-74
2023/02/16 08:56:28;;;;;;;84.82;45.20;;;6.20;99.90;;;;;;5071552;28;20031;-74
2023/02/16 08:58:54;;;;;;;85.68;45.88;;;6.20;99.90;;;;;;5076624;28;20115;-74
2023/02/16 09:01:20;;;;;;;73.13;43.25;;;6.20;99.90;;;;;;5095026;28;20051;-74
2023/02/16 09:03:47;;;;;;;81.63;46.58;;;6.20;99.90;;;;;;5071554;28;20044;-74
2023/02/16 09:06:15;;;;;;;86.07;45.38;;;6.30;99.90;;;;;;5072804;28;20166;-74
2023/02/16 09:08:43;;;;;;;80.40;43.67;;;6.20;99.90;;;;;;5099770;28;20381;-74
2023/02/16 09:11:14;;;;;;;83.40;44.55;;;6.30;99.90;;;;;;5072348;28;20088;-74
2023/02/16 09:13:40;;;;;;;80.32;44.50;;;6.30;99.90;;;;;;5099970;28;20047;-74
2023/02/16 09:16:12;;;;;;;81.93;45.50;;;6.40;99.90;;;;;;5071101;28;20032;-74
2023/02/16 09:18:39;;;;;;;85.70;45.95;;;6.40;99.90;;;;;;5073314;28;20406;-74
2023/02/16 09:21:06;;;;;;;78.93;44.40;;;6.40;99.90;;;;;;5077651;28;20044;-74
2023/02/16 09:23:34;;;;;;;79.00;44.50;;;6.40;99.90;;;;;;5068973;28;20055;-74
2023/02/16 09:26:06;;;;;;;79.03;43.80;;;6.50;99.90;;;;;;5073294;28;20449;-73
2023/02/16 09:28:32;;;;;;;85.28;44.75;;;6.40;99.90;;;;;;5075214;28;20083;-74
2023/02/16 09:30:58;;;;;;;89.30;47.10;;;6.50;99.90;;;;;;5092890;28;20039;-74
2023/02/16 09:33:24;;;;;;;81.75;44.35;;;6.50;99.90;;;;;;5071430;28;20032;-74
2023/02/16 09:35:51;;;;;;;80.35;45.28;;;6.50;99.90;;;;;;5074988;28;20054;-74
2023/02/16 09:38:17;;;;;;;79.15;42.92;;;6.60;99.90;;;;;;5070338;28;20036;-74
2023/02/16 09:40:43;;;;;;;82.68;44.45;;;6.50;99.90;;;;;;5072805;28;20055;-74
2023/02/16 09:43:28;;;;;;;82.28;44.85;;;6.60;99.90;;;;;;5080466;28;20089;-74
2023/02/16 09:45:57;;;;;;;82.30;44.22;;;6.60;99.90;;;;;;5069470;28;20040;-74
2023/02/16 09:48:36;;;;;;;79.57;44.65;;;6.70;99.90;;;;;;5082717;28;20119;-74
2023/02/16 09:51:04;;;;;;;81.10;45.28;;;6.60;99.90;;;;;;5094186;28;20128;-74
2023/02/16 09:53:36;;;;;;;82.05;45.17;;;6.70;99.90;;;;;;5081592;28;20159;-74
2023/02/16 09:56:19;;;;;;;84.88;46.08;;;6.70;99.90;;;;;;5068463;28;20106;-74
2023/02/16 09:58:47;;;;;;;80.60;45.35;;;6.70;99.90;;;;;;5067279;28;20111;-74
2023/02/16 10:01:32;;;;;;;83.10;45.33;;;6.70;99.90;;;;;;5056397;28;20097;-74
2023/02/16 10:04:26;;;;;;;84.25;46.50;;;6.70;99.90;;;;;;5068530;28;20040;-74
2023/02/16 10:07:13;;;;;;;84.35;45.75;;;6.80;99.90;;;;;;5072380;28;20036;-74
2023/02/16 10:09:43;;;;;;;86.43;45.20;;;6.70;99.90;;;;;;5071203;28;20110;-74
2023/02/16 10:12:18;;;;;;;88.63;47.83;;;6.90;99.90;;;;;;5068224;28;20111;-74
2023/02/16 10:14:50;;;;;;;92.47;46.53;;;6.80;99.90;;;;;;5080320;28;20036;-74
2023/02/16 10:17:31;;;;;;;92.10;49.00;;;6.80;99.90;;;;;;5075264;28;20518;-75
2023/02/16 10:20:08;;;;;;;91.55;48.05;;;6.80;99.90;;;;;;5077059;28;20044;-75
2023/02/16 10:22:58;;;;;;;87.13;47.70;;;6.80;99.90;;;;;;5075824;28;20107;-75
2023/02/16 10:25:40;;;;;;;83.80;47.47;;;6.80;99.90;;;;;;5067733;28;20032;-75
2023/02/16 10:28:17;;;;;;;88.10;48.30;;;6.90;99.90;;;;;;5066836;28;20552;-75
2023/02/16 10:30:52;;;;;;;91.90;48.85;;;6.90;99.90;;;;;;5075273;28;20507;-75
2023/02/16 10:33:37;;;;;;;92.63;49.38;;;6.80;99.90;;;;;;5069455;28;20051;-75
2023/02/16 10:36:29;;;;;;;91.65;48.90;;;6.90;99.90;;;;;;5069132;28;20043;-75
2023/02/16 10:39:19;;;;;;;91.47;48.35;;;6.90;99.90;;;;;;5052112;28;20386;-75
2023/02/16 10:41:53;;;;;;;92.70;50.45;;;7.00;99.90;;;;;;5081551;28;20128;-75
2023/02/16 10:44:23;;;;;;;87.88;49.47;;;7.00;99.90;;;;;;5085641;28;20097;-75
2023/02/16 10:47:04;;;;;;;97.55;51.47;;;7.00;99.90;;;;;;5084287;28;20048;-75
2023/02/16 10:49:31;;;;;;;92.32;49.33;;;7.00;99.90;;;;;;5065980;28;20040;-75
2023/02/16 10:52:00;;;;;;;94.18;49.95;;;7.00;99.90;;;;;;5066808;28;20036;-74
2023/02/16 10:54:31;;;;;;;92.07;50.35;;;7.10;99.90;;;;;;5087803;28;20048;-75
2023/02/16 10:57:30;;;;;;;91.45;51.13;;;7.00;99.90;;;;;;5043966;28;20033;-75
2023/02/16 11:00:05;;;;;;;94.40;51.35;;;7.00;99.90;;;;;;5068159;28;20042;-75
2023/02/16 11:02:41;;;;;;;96.88;50.83;;;7.00;99.90;;;;;;5075048;28;20036;-75
2023/02/16 11:05:25;;;;;;;93.30;50.17;;;7.00;99.90;;;;;;5075051;28;20419;-75
2023/02/16 11:07:53;;;;;;;91.93;48.90;;;7.10;99.90;;;;;;5075310;28;20169;-75
2023/02/16 11:10:32;;;;;;;97.05;50.83;;;7.10;99.90;;;;;;5085785;28;20036;-74
2023/02/16 11:12:58;;;;;;;97.78;49.22;;;7.10;99.90;;;;;;5071672;28;20649;-75
2023/02/16 11:15:26;;;;;;;95.85;49.47;;;7.10;99.90;;;;;;5071014;28;20054;-75
2023/02/16 11:18:06;;;;;;;92.18;47.97;;;7.20;99.90;;;;;;5075464;28;20488;-75
2023/02/16 11:20:43;;;;;;;97.57;49.80;;;7.20;99.90;;;;;;5055230;28;20036;-75
2023/02/16 11:23:27;;;;;;;91.68;48.35;;;7.20;99.90;;;;;;5075022;28;20454;-75
2023/02/16 11:25:58;;;;;;;92.90;49.05;;;7.20;99.90;;;;;;5101274;28;20090;-75
2023/02/16 11:28:31;;;;;;;96.80;51.15;;;7.20;99.90;;;;;;5082818;28;20067;-74
2023/02/16 11:31:31;;;;;;;95.20;49.25;;;7.30;99.90;;;;;;5084910;28;20480;-75
2023/02/16 11:34:07;;;;;;;94.85;49.72;;;7.30;99.90;;;;;;5075472;28;20109;-75
2023/02/16 11:36:43;;;;;;;95.97;51.00;;;7.30;99.90;;;;;;5080940;28;20059;-75
2023/02/16 11:39:21;;;;;;;97.82;50.72;;;7.40;99.90;;;;;;5072541;28;20051;-74
2023/02/16 11:41:50;;;;;;;100.28;52.50;;;7.40;99.90;;;;;;5078023;28;20047;-74
2023/02/16 11:44:32;;;;;;;92.63;48.45;;;7.50;99.90;;;;;;5078106;28;20035;-75
2023/02/16 11:47:02;;;;;;;;;;;7.50;99.90;;;;;;5078027;28;20044;-75
2023/02/16 11:49:33;;;;;;;90.65;48.80;;;7.60;99.90;;;;;;5100077;28;20027;-75
2023/02/16 11:51:59;;;;;;;95.50;50.08;;;7.60;99.90;;;;;;5074036;28;20611;-75
2023/02/16 11:54:26;;;;;;;88.80;48.33;;;7.60;99.90;;;;;;5075387;28;20036;-75
2023/02/16 11:57:02;;;;;;;88.80;50.83;;;7.60;99.90;;;;;;5074603;28;20400;-75
2023/02/16 11:59:36;;;;;;;102.43;51.42;;;7.70;99.90;;;;;;5067978;28;20047;-75
2023/02/16 12:02:45;;;;;;;95.15;50.67;;;7.70;99.90;;;;;;5069327;28;20040;-75
2023/02/16 12:05:23;;;;;;;90.93;49.20;;;7.70;99.90;;;;;;5039291;28;20142;-75
2023/02/16 12:08:13;;;;;;;91.20;49.38;;;7.80;99.90;;;;;;5075232;28;20046;-75
2023/02/16 12:10:53;;;;;;;91.75;51.50;;;7.90;99.90;;;;;;5083070;28;20052;-75
2023/02/16 12:13:35;;;;;;;87.97;49.85;;;7.90;99.90;;;;;;5085291;28;20373;-76
2023/02/16 12:16:25;;;;;;;90.13;49.58;;;8.00;99.90;;;;;;5056183;28;20036;-75
2023/02/16 12:18:51;;;;;;;91.95;50.47;;;8.10;99.90;;;;;;5086181;28;20075;-75
2023/02/16 12:21:33;;;;;;;94.60;53.03;;;8.10;99.90;;;;;;5067398;28;20039;-75
2023/02/16 12:24:27;;;;;;;92.25;50.97;;;8.20;99.90;;;;;;5073488;28;20086;-76
2023/02/16 12:27:22;;;;;;;89.82;49.30;;;8.30;99.90;;;;;;5072361;28;20075;-76
2023/02/16 12:30:12;;;;;;;83.93;49.08;;;8.30;99.90;;;;;;5068195;28;20091;-76
2023/02/16 12:32:50;;;;;;;82.22;46.92;;;8.30;99.90;;;;;;5069361;28;20040;-75
2023/02/16 12:35:33;;;;;;;85.57;48.35;;;8.30;99.90;;;;;;5072630;28;20324;-76
2023/02/16 12:38:46;;;;;;;83.72;47.70;;;8.30;99.90;;;;;;5071222;28;20158;-76
2023/02/16 12:41:39;;;;;;;86.75;50.30;;;8.30;99.90;;;;;;4973069;28;20061;-76
2023/02/16 12:44:09;;;;;;;;;;;8.40;99.90;;;;;;4985546;28;20043;-75
2023/02/16 12:46:37;;;;;;;86.47;47.42;;;8.50;99.90;;;;;;5042726;28;19916;-76
2023/02/16 12:49:20;;;;;;;84.25;47.13;;;8.60;99.90;;;;;;5072496;28;20032;-76
2023/02/16 12:51:53;;;;;;;82.32;47.53;;;8.70;99.90;;;;;;5053171;28;20036;-76
2023/02/16 12:54:37;;;;;;;77.47;45.42;;;8.80;99.90;;;;;;5078815;28;20575;-76
2023/02/16 12:57:09;;;;;;;81.78;48.20;;;9.00;99.90;;;;;;5090271;28;20052;-76
2023/02/16 13:00:13;;;;;;;73.43;44.20;;;9.00;99.90;;;;;;5082465;28;20040;-75
2023/02/16 13:02:48;;;;;;;79.60;47.22;;;9.10;99.90;;;;;;5064449;28;20056;-75
2023/02/16 13:05:35;;;;;;;70.72;43.80;;;9.20;99.90;;;;;;5072756;28;20063;-76
2023/02/16 13:08:13;;;;;;;74.20;45.28;;;9.20;99.90;;;;;;5081624;28;20108;-76
2023/02/16 13:10:52;;;;;;;77.22;45.17;;;9.20;99.90;;;;;;5068481;28;20040;-75
2023/02/16 13:13:23;;;;;;;71.93;44.20;;;9.30;99.90;;;;;;5066672;28;20093;-75
2023/02/16 13:16:00;;;;;;;78.07;44.47;;;9.50;99.90;;;;;;5069135;28;20070;-75
2023/02/16 13:18:34;;;;;;;71.50;42.55;;;9.40;99.90;;;;;;5072668;28;20059;-75
2023/02/16 13:21:10;;;;;;;71.00;42.58;;;9.40;99.90;;;;;;5064175;28;20094;-74
2023/02/16 13:23:51;;;;;;;66.75;42.47;;;9.40;99.90;;;;;;5072782;28;20040;-74
2023/02/16 13:26:25;;;;;;;72.05;41.95;;;9.30;99.90;;;;;;5075713;28;20039;-75
2023/02/16 13:29:02;;;;;;;69.35;41.42;;;9.30;99.90;;;;;;5083474;28;20040;-75
2023/02/16 13:31:56;;;;;;;73.53;43.00;;;9.30;99.90;;;;;;5063314;28;20506;-75
2023/02/16 13:34:40;;;;;;;68.10;41.58;;;9.20;99.90;;;;;;5054006;28;20040;-76
2023/02/16 13:37:14;;;;;;;66.55;42.25;;;9.20;99.90;;;;;;5066037;28;20127;-76
2023/02/16 13:39:43;;;;;;;70.20;41.10;;;9.30;99.90;;;;;;5071713;28;20043;-75
2023/02/16 13:42:32;;;;;;;72.03;41.85;;;9.30;99.90;;;;;;5066818;28;20500;-74
2023/02/16 13:45:01;;;;;;;71.82;43.42;;;9.30;99.90;;;;;;5082626;28;20051;-75